sensor_id;sensor_type;location;lat;lon;timestamp;temperature;humidity
33725;DHT22;20056;0.000;0.000;2022-12-18T00:00:28;17.90;62.10
33725;DHT22;20056;0.000;0.000;2022-12-18T00:02:55;18.00;61.90
33725;DHT22;20056;0.000;0.000;2022-12-18T00:05:21;18.00;61.80
33725;DHT22;20056;0.000;0.000;2022-12-18T00:07:46;18.10;61.80
33725;DHT22;20056;0.000;0.000;2022-12-18T00:10:12;18.10;61.50
33725;DHT22;20056;0.000;0.000;2022-12-18T00:12:37;18.10;58.90
33725;DHT22;20056;0.000;0.000;2022-12-18T00:15:03;18.10;57.60
33725;DHT22;20056;0.000;0.000;2022-12-18T00:17:29;17.90;60.40
33725;DHT22;20056;0.000;0.000;2022-12-18T00:19:54;17.90;62.60
33725;DHT22;20056;0.000;0.000;2022-12-18T00:22:20;17.90;63.40
33725;DHT22;20056;0.000;0.000;2022-12-18T00:24:45;17.90;63.10
33725;DHT22;20056;0.000;0.000;2022-12-18T00:27:10;17.90;63.10
33725;DHT22;20056;0.000;0.000;2022-12-18T00:29:36;17.90;62.70
33725;DHT22;20056;0.000;0.000;2022-12-18T00:32:01;17.90;62.30
33725;DHT22;20056;0.000;0.000;2022-12-18T00:34:27;18.00;62.20
33725;DHT22;20056;0.000;0.000;2022-12-18T00:36:52;18.00;61.80
33725;DHT22;20056;0.000;0.000;2022-12-18T00:39:18;18.10;61.60
33725;DHT22;20056;0.000;0.000;2022-12-18T00:41:44;18.10;61.50
33725;DHT22;20056;0.000;0.000;2022-12-18T06:03:28;15.60;64.10
33725;DHT22;20056;0.000;0.000;2022-12-18T06:05:53;15.50;69.20
33725;DHT22;20056;0.000;0.000;2022-12-18T06:08:19;15.70;70.10
33725;DHT22;20056;0.000;0.000;2022-12-18T06:10:50;15.90;69.90
33725;DHT22;20056;0.000;0.000;2022-12-18T06:13:16;16.10;69.20
33725;DHT22;20056;0.000;0.000;2022-12-18T06:15:42;16.40;67.90
33725;DHT22;20056;0.000;0.000;2022-12-18T06:18:07;16.60;66.90
33725;DHT22;20056;0.000;0.000;2022-12-18T06:20:33;16.80;65.90
33725;DHT22;20056;0.000;0.000;2022-12-18T06:22:59;16.90;65.10
33725;DHT22;20056;0.000;0.000;2022-12-18T06:25:24;17.10;64.40
33725;DHT22;20056;0.000;0.000;2022-12-18T06:27:50;17.20;63.80
33725;DHT22;20056;0.000;0.000;2022-12-18T06:30:16;17.30;63.30
33725;DHT22;20056;0.000;0.000;2022-12-18T06:32:41;17.40;62.80
33725;DHT22;20056;0.000;0.000;2022-12-18T06:35:07;17.50;61.70
33725;DHT22;20056;0.000;0.000;2022-12-18T06:37:32;17.50;57.50
33725;DHT22;20056;0.000;0.000;2022-12-18T06:39:58;17.40;59.40
33725;DHT22;20056;0.000;0.000;2022-12-18T06:42:24;17.40;62.00
33725;DHT22;20056;0.000;0.000;2022-12-18T06:44:50;17.40;62.60
33725;DHT22;20056;0.000;0.000;2022-12-18T06:47:16;17.40;63.00
33725;DHT22;20056;0.000;0.000;2022-12-18T06:49:41;17.40;62.80
33725;DHT22;20056;0.000;0.000;2022-12-18T06:52:07;17.40;62.50
33725;DHT22;20056;0.000;0.000;2022-12-18T06:54:32;17.40;62.20
33725;DHT22;20056;0.000;0.000;2022-12-18T06:56:58;17.40;62.00
33725;DHT22;20056;0.000;0.000;2022-12-18T06:59:23;17.50;61.80
33725;DHT22;20056;0.000;0.000;2022-12-18T07:01:49;17.50;61.60
33725;DHT22;20056;0.000;0.000;2022-12-18T07:04:14;17.50;61.40
33725;DHT22;20056;0.000;0.000;2022-12-18T07:06:40;17.60;61.30
33725;DHT22;20056;0.000;0.000;2022-12-18T07:09:05;17.60;61.10
33725;DHT22;20056;0.000;0.000;2022-12-18T07:11:32;17.70;61.40
33725;DHT22;20056;0.000;0.000;2022-12-18T07:13:58;17.70;58.60
33725;DHT22;20056;0.000;0.000;2022-12-18T07:16:24;17.60;55.60
33725;DHT22;20056;0.000;0.000;2022-12-18T07:18:49;17.50;58.20
33725;DHT22;20056;0.000;0.000;2022-12-18T07:21:17;17.40;58.40
33725;DHT22;20056;0.000;0.000;2022-12-18T07:23:43;17.40;58.60
33725;DHT22;20056;0.000;0.000;2022-12-18T07:26:12;17.40;58.60
33725;DHT22;20056;0.000;0.000;2022-12-18T07:28:39;17.40;58.60
33725;DHT22;20056;0.000;0.000;2022-12-18T07:31:07;17.30;58.40
33725;DHT22;20056;0.000;0.000;2022-12-18T07:33:33;17.30;58.40
33725;DHT22;20056;0.000;0.000;2022-12-18T07:36:00;17.30;58.70
33725;DHT22;20056;0.000;0.000;2022-12-18T07:38:26;17.30;58.30
33725;DHT22;20056;0.000;0.000;2022-12-18T07:40:52;17.30;58.20
33725;DHT22;20056;0.000;0.000;2022-12-18T07:43:17;17.30;55.70
33725;DHT22;20056;0.000;0.000;2022-12-18T07:45:43;17.10;55.40
33725;DHT22;20056;0.000;0.000;2022-12-18T07:48:09;17.00;57.90
33725;DHT22;20056;0.000;0.000;2022-12-18T07:50:34;16.90;58.70
33725;DHT22;20056;0.000;0.000;2022-12-18T07:53:00;16.80;59.60
33725;DHT22;20056;0.000;0.000;2022-12-18T07:55:29;16.80;60.30
33725;DHT22;20056;0.000;0.000;2022-12-18T07:57:55;16.80;60.20
33725;DHT22;20056;0.000;0.000;2022-12-18T08:00:20;16.80;60.10
33725;DHT22;20056;0.000;0.000;2022-12-18T08:02:46;16.80;59.70
33725;DHT22;20056;0.000;0.000;2022-12-18T08:05:11;16.90;59.20
33725;DHT22;20056;0.000;0.000;2022-12-18T08:07:37;16.90;58.80
33725;DHT22;20056;0.000;0.000;2022-12-18T08:10:03;17.00;58.50
33725;DHT22;20056;0.000;0.000;2022-12-18T08:12:28;17.00;58.10
33725;DHT22;20056;0.000;0.000;2022-12-18T08:14:54;17.10;58.00
33725;DHT22;20056;0.000;0.000;2022-12-18T08:17:20;17.10;57.70
33725;DHT22;20056;0.000;0.000;2022-12-18T08:19:45;17.20;57.40
33725;DHT22;20056;0.000;0.000;2022-12-18T08:22:11;17.30;57.20
33725;DHT22;20056;0.000;0.000;2022-12-18T08:24:36;17.30;57.00
33725;DHT22;20056;0.000;0.000;2022-12-18T08:27:02;17.40;49.00
33725;DHT22;20056;0.000;0.000;2022-12-18T08:29:27;17.30;46.90
33725;DHT22;20056;0.000;0.000;2022-12-18T08:31:53;16.80;46.20
33725;DHT22;20056;0.000;0.000;2022-12-18T08:34:18;16.20;46.40
33725;DHT22;20056;0.000;0.000;2022-12-18T08:36:44;15.70;47.50
33725;DHT22;20056;0.000;0.000;2022-12-18T08:39:10;15.20;47.90
33725;DHT22;20056;0.000;0.000;2022-12-18T08:41:35;14.90;48.90
33725;DHT22;20056;0.000;0.000;2022-12-18T08:44:00;14.60;48.70
33725;DHT22;20056;0.000;0.000;2022-12-18T08:46:45;14.30;49.00
33725;DHT22;20056;0.000;0.000;2022-12-18T08:49:11;14.10;49.40
33725;DHT22;20056;0.000;0.000;2022-12-18T08:51:38;14.00;49.50
33725;DHT22;20056;0.000;0.000;2022-12-18T08:54:04;13.90;49.20
33725;DHT22;20056;0.000;0.000;2022-12-18T08:56:30;13.80;49.50
33725;DHT22;20056;0.000;0.000;2022-12-18T08:58:57;13.70;48.80
33725;DHT22;20056;0.000;0.000;2022-12-18T09:01:23;13.60;48.90
33725;DHT22;20056;0.000;0.000;2022-12-18T09:03:49;13.60;52.10
33725;DHT22;20056;0.000;0.000;2022-12-18T09:06:17;13.80;54.60
33725;DHT22;20056;0.000;0.000;2022-12-18T09:08:44;14.20;54.40
33725;DHT22;20056;0.000;0.000;2022-12-18T09:11:21;14.50;55.70
33725;DHT22;20056;0.000;0.000;2022-12-18T09:13:47;15.00;59.60
33725;DHT22;20056;0.000;0.000;2022-12-18T09:16:13;15.40;59.50
33725;DHT22;20056;0.000;0.000;2022-12-18T09:18:39;15.80;57.40
33725;DHT22;20056;0.000;0.000;2022-12-18T09:21:12;16.20;56.30
33725;DHT22;20056;0.000;0.000;2022-12-18T09:23:38;16.60;55.70
33725;DHT22;20056;0.000;0.000;2022-12-18T09:26:04;17.00;54.40
33725;DHT22;20056;0.000;0.000;2022-12-18T09:28:30;17.30;53.10
33725;DHT22;20056;0.000;0.000;2022-12-18T09:30:55;17.60;53.50
33725;DHT22;20056;0.000;0.000;2022-12-18T09:33:21;17.90;52.10
33725;DHT22;20056;0.000;0.000;2022-12-18T09:35:46;18.20;51.50
33725;DHT22;20056;0.000;0.000;2022-12-18T09:38:15;18.40;49.30
33725;DHT22;20056;0.000;0.000;2022-12-18T09:40:46;18.50;46.10
33725;DHT22;20056;0.000;0.000;2022-12-18T09:43:28;18.50;47.50
33725;DHT22;20056;0.000;0.000;2022-12-18T09:45:58;18.50;51.90
33725;DHT22;20056;0.000;0.000;2022-12-18T09:48:31;18.60;53.70
33725;DHT22;20056;0.000;0.000;2022-12-18T09:51:03;18.70;53.70
33725;DHT22;20056;0.000;0.000;2022-12-18T09:53:34;18.90;52.40
33725;DHT22;20056;0.000;0.000;2022-12-18T09:56:03;19.00;50.70
33725;DHT22;20056;0.000;0.000;2022-12-18T10:00:58;19.40;50.60
33725;DHT22;20056;0.000;0.000;2022-12-18T10:03:24;19.60;49.00
33725;DHT22;20056;0.000;0.000;2022-12-18T10:06:02;19.80;45.80
33725;DHT22;20056;0.000;0.000;2022-12-18T10:08:37;19.80;45.40
33725;DHT22;20056;0.000;0.000;2022-12-18T10:22:36;20.10;45.80
33725;DHT22;20056;0.000;0.000;2022-12-18T10:27:30;20.60;45.20
33725;DHT22;20056;0.000;0.000;2022-12-18T10:29:57;20.60;44.80
33725;DHT22;20056;0.000;0.000;2022-12-18T10:32:26;20.80;45.40
33725;DHT22;20056;0.000;0.000;2022-12-18T10:34:54;20.90;44.70
33725;DHT22;20056;0.000;0.000;2022-12-18T10:37:22;21.00;44.60
33725;DHT22;20056;0.000;0.000;2022-12-18T10:40:13;21.10;44.90
33725;DHT22;20056;0.000;0.000;2022-12-18T10:42:39;21.20;44.00
33725;DHT22;20056;0.000;0.000;2022-12-18T10:45:11;21.20;44.00
33725;DHT22;20056;0.000;0.000;2022-12-18T10:47:42;21.30;43.70
33725;DHT22;20056;0.000;0.000;2022-12-18T10:50:26;21.30;43.70
33725;DHT22;20056;0.000;0.000;2022-12-18T10:52:58;21.40;43.40
33725;DHT22;20056;0.000;0.000;2022-12-18T10:55:30;21.40;43.00
33725;DHT22;20056;0.000;0.000;2022-12-18T10:58:26;21.50;42.90
33725;DHT22;20056;0.000;0.000;2022-12-18T11:03:46;21.60;42.40
33725;DHT22;20056;0.000;0.000;2022-12-18T11:06:24;21.60;42.40
33725;DHT22;20056;0.000;0.000;2022-12-18T11:09:02;21.60;42.10
33725;DHT22;20056;0.000;0.000;2022-12-18T11:11:28;21.70;41.70
33725;DHT22;20056;0.000;0.000;2022-12-18T11:14:06;21.70;41.90
33725;DHT22;20056;0.000;0.000;2022-12-18T11:16:42;21.80;41.40
33725;DHT22;20056;0.000;0.000;2022-12-18T11:21:57;21.70;40.70
33725;DHT22;20056;0.000;0.000;2022-12-18T11:24:27;21.60;41.10
33725;DHT22;20056;0.000;0.000;2022-12-18T11:26:57;21.60;41.30
33725;DHT22;20056;0.000;0.000;2022-12-18T11:29:35;21.60;41.10
33725;DHT22;20056;0.000;0.000;2022-12-18T11:32:30;21.60;41.30
33725;DHT22;20056;0.000;0.000;2022-12-18T11:37:40;21.50;40.90
33725;DHT22;20056;0.000;0.000;2022-12-18T11:40:14;21.50;40.80
33725;DHT22;20056;0.000;0.000;2022-12-18T11:42:49;21.50;40.90
33725;DHT22;20056;0.000;0.000;2022-12-18T11:45:23;21.50;41.10
33725;DHT22;20056;0.000;0.000;2022-12-18T11:48:02;21.50;40.90
33725;DHT22;20056;0.000;0.000;2022-12-18T11:52:57;21.50;40.90
33725;DHT22;20056;0.000;0.000;2022-12-18T11:58:27;21.60;40.20
33725;DHT22;20056;0.000;0.000;2022-12-18T12:06:49;21.60;40.60
33725;DHT22;20056;0.000;0.000;2022-12-18T12:17:25;21.50;40.40
33725;DHT22;20056;0.000;0.000;2022-12-18T12:25:37;21.20;32.20
33725;DHT22;20056;0.000;0.000;2022-12-18T12:28:28;20.60;31.20
33725;DHT22;20056;0.000;0.000;2022-12-18T12:39:17;17.90;31.40
33725;DHT22;20056;0.000;0.000;2022-12-18T12:41:45;17.40;33.10
33725;DHT22;20056;0.000;0.000;2022-12-18T12:44:43;17.00;33.40
33725;DHT22;20056;0.000;0.000;2022-12-18T12:47:28;16.60;33.80
33725;DHT22;20056;0.000;0.000;2022-12-18T12:49:58;16.30;34.20
33725;DHT22;20056;0.000;0.000;2022-12-18T12:52:30;16.00;34.30
33725;DHT22;20056;0.000;0.000;2022-12-18T12:54:58;15.90;34.60
33725;DHT22;20056;0.000;0.000;2022-12-18T12:57:33;15.70;34.70
33725;DHT22;20056;0.000;0.000;2022-12-18T13:00:09;15.40;34.50
33725;DHT22;20056;0.000;0.000;2022-12-18T13:08:12;15.10;35.60
33725;DHT22;20056;0.000;0.000;2022-12-18T13:10:46;15.10;35.80
33725;DHT22;20056;0.000;0.000;2022-12-18T13:13:16;15.00;35.50
33725;DHT22;20056;0.000;0.000;2022-12-18T13:16:03;15.00;35.30
33725;DHT22;20056;0.000;0.000;2022-12-18T13:18:28;14.80;35.80
33725;DHT22;20056;0.000;0.000;2022-12-18T13:34:20;13.60;35.70
33725;DHT22;20056;0.000;0.000;2022-12-18T13:36:47;13.40;36.10
33725;DHT22;20056;0.000;0.000;2022-12-18T13:41:47;13.30;37.00
33725;DHT22;20056;0.000;0.000;2022-12-18T13:44:19;13.20;37.00
33725;DHT22;20056;0.000;0.000;2022-12-18T13:46:48;13.10;37.20
33725;DHT22;20056;0.000;0.000;2022-12-18T13:49:25;13.00;37.50
33725;DHT22;20056;0.000;0.000;2022-12-18T13:51:53;12.90;37.60
33725;DHT22;20056;0.000;0.000;2022-12-18T13:54:36;12.80;37.70
33725;DHT22;20056;0.000;0.000;2022-12-18T13:57:03;12.70;38.00
33725;DHT22;20056;0.000;0.000;2022-12-18T13:59:38;12.60;38.20
33725;DHT22;20056;0.000;0.000;2022-12-18T14:02:15;12.50;38.20
33725;DHT22;20056;0.000;0.000;2022-12-18T14:04:44;12.50;39.00
33725;DHT22;20056;0.000;0.000;2022-12-18T14:09:46;12.30;38.30
33725;DHT22;20056;0.000;0.000;2022-12-18T14:12:22;12.20;38.50
33725;DHT22;20056;0.000;0.000;2022-12-18T14:15:23;12.00;39.00
33725;DHT22;20056;0.000;0.000;2022-12-18T14:17:58;11.90;38.80
33725;DHT22;20056;0.000;0.000;2022-12-18T14:20:29;11.80;38.80
33725;DHT22;20056;0.000;0.000;2022-12-18T14:22:56;11.70;39.80
33725;DHT22;20056;0.000;0.000;2022-12-18T14:25:25;11.80;40.40
33725;DHT22;20056;0.000;0.000;2022-12-18T14:27:53;11.80;40.40
33725;DHT22;20056;0.000;0.000;2022-12-18T14:30:32;11.90;40.50
33725;DHT22;20056;0.000;0.000;2022-12-18T14:33:12;12.00;40.80
33725;DHT22;20056;0.000;0.000;2022-12-18T14:35:40;12.10;42.70
33725;DHT22;20056;0.000;0.000;2022-12-18T14:38:17;12.20;45.20
33725;DHT22;20056;0.000;0.000;2022-12-18T14:40:44;12.50;46.10
33725;DHT22;20056;0.000;0.000;2022-12-18T14:43:10;12.80;46.30
33725;DHT22;20056;0.000;0.000;2022-12-18T14:45:38;13.10;46.60
33725;DHT22;20056;0.000;0.000;2022-12-18T14:48:15;13.30;46.30
33725;DHT22;20056;0.000;0.000;2022-12-18T14:50:41;13.60;46.10
33725;DHT22;20056;0.000;0.000;2022-12-18T14:53:19;13.90;46.00
33725;DHT22;20056;0.000;0.000;2022-12-18T14:55:47;14.10;45.70
33725;DHT22;20056;0.000;0.000;2022-12-18T14:58:14;14.20;45.60
33725;DHT22;20056;0.000;0.000;2022-12-18T15:00:43;14.40;45.50
33725;DHT22;20056;0.000;0.000;2022-12-18T15:03:09;14.60;45.40
33725;DHT22;20056;0.000;0.000;2022-12-18T15:05:35;14.70;45.20
33725;DHT22;20056;0.000;0.000;2022-12-18T15:08:01;14.80;45.20
33725;DHT22;20056;0.000;0.000;2022-12-18T15:10:32;14.90;45.30
33725;DHT22;20056;0.000;0.000;2022-12-18T15:18:00;15.20;45.40
33725;DHT22;20056;0.000;0.000;2022-12-18T15:20:27;15.20;45.10
33725;DHT22;20056;0.000;0.000;2022-12-18T15:22:56;15.30;45.00
33725;DHT22;20056;0.000;0.000;2022-12-18T15:25:34;15.40;45.00
33725;DHT22;20056;0.000;0.000;2022-12-18T15:28:02;15.40;45.00
33725;DHT22;20056;0.000;0.000;2022-12-18T15:30:28;15.40;44.80
33725;DHT22;20056;0.000;0.000;2022-12-18T15:33:22;15.50;45.00
33725;DHT22;20056;0.000;0.000;2022-12-18T15:35:59;15.60;45.40
33725;DHT22;20056;0.000;0.000;2022-12-18T15:38:26;15.60;48.90
33725;DHT22;20056;0.000;0.000;2022-12-18T15:40:52;15.80;44.20
33725;DHT22;20056;0.000;0.000;2022-12-18T15:43:21;15.70;45.30
33725;DHT22;20056;0.000;0.000;2022-12-18T15:46:02;15.70;47.00
33725;DHT22;20056;0.000;0.000;2022-12-18T15:48:28;15.70;47.30
33725;DHT22;20056;0.000;0.000;2022-12-18T15:50:55;15.70;47.00
33725;DHT22;20056;0.000;0.000;2022-12-18T15:53:23;15.80;47.30
33725;DHT22;20056;0.000;0.000;2022-12-18T15:55:49;16.00;47.20
33725;DHT22;20056;0.000;0.000;2022-12-18T15:58:33;16.20;47.10
33725;DHT22;20056;0.000;0.000;2022-12-18T16:00:59;16.30;46.80
33725;DHT22;20056;0.000;0.000;2022-12-18T16:03:26;16.50;46.60
33725;DHT22;20056;0.000;0.000;2022-12-18T16:05:51;16.60;46.30
33725;DHT22;20056;0.000;0.000;2022-12-18T16:08:17;16.80;46.00
33725;DHT22;20056;0.000;0.000;2022-12-18T16:10:42;16.90;45.50
33725;DHT22;20056;0.000;0.000;2022-12-18T16:13:12;17.00;45.00
33725;DHT22;20056;0.000;0.000;2022-12-18T16:15:41;17.00;44.90
33725;DHT22;20056;0.000;0.000;2022-12-18T16:18:07;17.10;44.60
33725;DHT22;20056;0.000;0.000;2022-12-18T16:20:32;17.10;44.40
33725;DHT22;20056;0.000;0.000;2022-12-18T16:22:58;17.20;44.20
33725;DHT22;20056;0.000;0.000;2022-12-18T16:25:26;17.30;44.20
33725;DHT22;20056;0.000;0.000;2022-12-18T16:27:53;17.30;44.00
33725;DHT22;20056;0.000;0.000;2022-12-18T16:30:22;17.30;43.90
33725;DHT22;20056;0.000;0.000;2022-12-18T16:32:48;17.30;43.80
33725;DHT22;20056;0.000;0.000;2022-12-18T16:35:15;17.40;43.80
33725;DHT22;20056;0.000;0.000;2022-12-18T16:37:41;17.40;43.50
33725;DHT22;20056;0.000;0.000;2022-12-18T16:40:10;17.40;43.60
33725;DHT22;20056;0.000;0.000;2022-12-18T16:42:38;17.40;43.60
33725;DHT22;20056;0.000;0.000;2022-12-18T16:45:05;17.40;43.60
33725;DHT22;20056;0.000;0.000;2022-12-18T16:47:31;17.50;43.30
33725;DHT22;20056;0.000;0.000;2022-12-18T16:49:56;17.50;43.50
33725;DHT22;20056;0.000;0.000;2022-12-18T16:52:22;17.50;43.40
33725;DHT22;20056;0.000;0.000;2022-12-18T16:54:47;17.50;43.40
33725;DHT22;20056;0.000;0.000;2022-12-18T16:57:15;17.60;43.40
33725;DHT22;20056;0.000;0.000;2022-12-18T16:59:42;17.50;43.20
33725;DHT22;20056;0.000;0.000;2022-12-18T17:04:40;17.60;43.30
33725;DHT22;20056;0.000;0.000;2022-12-18T17:07:06;17.60;43.30
33725;DHT22;20056;0.000;0.000;2022-12-18T17:09:32;17.60;43.10
33725;DHT22;20056;0.000;0.000;2022-12-18T17:11:58;17.60;43.30
33725;DHT22;20056;0.000;0.000;2022-12-18T17:14:24;17.60;43.30
33725;DHT22;20056;0.000;0.000;2022-12-18T17:16:51;17.60;43.10
33725;DHT22;20056;0.000;0.000;2022-12-18T17:19:16;17.60;43.20
33725;DHT22;20056;0.000;0.000;2022-12-18T17:21:48;17.70;43.20
33725;DHT22;20056;0.000;0.000;2022-12-18T17:24:14;17.60;43.00
33725;DHT22;20056;0.000;0.000;2022-12-18T17:26:39;17.70;43.20
33725;DHT22;20056;0.000;0.000;2022-12-18T17:29:05;17.70;43.20
33725;DHT22;20056;0.000;0.000;2022-12-18T17:31:31;17.70;43.10
33725;DHT22;20056;0.000;0.000;2022-12-18T17:33:57;17.70;43.20
33725;DHT22;20056;0.000;0.000;2022-12-18T17:36:24;17.70;43.20
33725;DHT22;20056;0.000;0.000;2022-12-18T17:38:57;17.70;43.30
33725;DHT22;20056;0.000;0.000;2022-12-18T17:41:24;17.70;43.30
33725;DHT22;20056;0.000;0.000;2022-12-18T17:43:55;17.70;43.20
33725;DHT22;20056;0.000;0.000;2022-12-18T17:46:21;17.70;43.20
33725;DHT22;20056;0.000;0.000;2022-12-18T17:48:47;17.80;43.20
33725;DHT22;20056;0.000;0.000;2022-12-18T17:51:13;17.70;43.10
33725;DHT22;20056;0.000;0.000;2022-12-18T17:53:39;17.70;43.10
33725;DHT22;20056;0.000;0.000;2022-12-18T17:56:05;17.80;43.30
33725;DHT22;20056;0.000;0.000;2022-12-18T17:58:32;17.80;43.30
33725;DHT22;20056;0.000;0.000;2022-12-18T18:00:58;17.80;43.30
33725;DHT22;20056;0.000;0.000;2022-12-18T18:03:24;17.80;43.30
33725;DHT22;20056;0.000;0.000;2022-12-18T18:05:54;17.80;43.30
33725;DHT22;20056;0.000;0.000;2022-12-18T18:08:20;17.80;43.50
33725;DHT22;20056;0.000;0.000;2022-12-18T18:10:46;17.80;43.30
33725;DHT22;20056;0.000;0.000;2022-12-18T18:13:24;17.80;43.20
33725;DHT22;20056;0.000;0.000;2022-12-18T18:16:10;17.80;43.00
33725;DHT22;20056;0.000;0.000;2022-12-18T18:18:36;17.80;42.90
33725;DHT22;20056;0.000;0.000;2022-12-18T18:21:06;17.80;43.90
33725;DHT22;20056;0.000;0.000;2022-12-18T18:23:33;17.80;44.50
33725;DHT22;20056;0.000;0.000;2022-12-18T18:26:06;17.90;44.90
33725;DHT22;20056;0.000;0.000;2022-12-18T18:28:32;17.90;45.10
33725;DHT22;20056;0.000;0.000;2022-12-18T18:31:03;17.90;45.10
33725;DHT22;20056;0.000;0.000;2022-12-18T18:33:29;17.90;45.00
33725;DHT22;20056;0.000;0.000;2022-12-18T18:35:55;17.90;45.10
33725;DHT22;20056;0.000;0.000;2022-12-18T18:38:20;17.90;44.90
33725;DHT22;20056;0.000;0.000;2022-12-18T18:40:46;18.00;44.70
33725;DHT22;20056;0.000;0.000;2022-12-18T18:43:12;18.00;44.80
33725;DHT22;20056;0.000;0.000;2022-12-18T18:45:37;18.00;44.70
33725;DHT22;20056;0.000;0.000;2022-12-18T18:48:03;18.00;44.60
33725;DHT22;20056;0.000;0.000;2022-12-18T18:50:28;18.00;44.50
33725;DHT22;20056;0.000;0.000;2022-12-18T18:52:54;18.00;44.40
33725;DHT22;20056;0.000;0.000;2022-12-18T18:55:20;18.00;44.30
33725;DHT22;20056;0.000;0.000;2022-12-18T18:57:45;18.00;44.50
33725;DHT22;20056;0.000;0.000;2022-12-18T19:00:11;18.00;44.50
33725;DHT22;20056;0.000;0.000;2022-12-18T19:02:38;17.90;44.50
33725;DHT22;20056;0.000;0.000;2022-12-18T19:05:03;18.00;44.60
33725;DHT22;20056;0.000;0.000;2022-12-18T19:07:29;18.00;44.90
33725;DHT22;20056;0.000;0.000;2022-12-18T19:09:55;18.00;45.20
33725;DHT22;20056;0.000;0.000;2022-12-18T19:12:20;18.00;45.10
33725;DHT22;20056;0.000;0.000;2022-12-18T19:15:05;18.00;45.40
33725;DHT22;20056;0.000;0.000;2022-12-18T19:17:31;18.10;45.60
33725;DHT22;20056;0.000;0.000;2022-12-18T19:19:56;18.10;45.30
33725;DHT22;20056;0.000;0.000;2022-12-18T19:22:22;18.10;45.30
33725;DHT22;20056;0.000;0.000;2022-12-18T19:24:48;18.10;45.10
33725;DHT22;20056;0.000;0.000;2022-12-18T19:27:13;18.10;44.90
33725;DHT22;20056;0.000;0.000;2022-12-18T19:29:39;18.10;44.90
33725;DHT22;20056;0.000;0.000;2022-12-18T19:32:05;18.10;45.40
33725;DHT22;20056;0.000;0.000;2022-12-18T19:34:30;18.10;45.70
33725;DHT22;20056;0.000;0.000;2022-12-18T19:36:56;18.10;46.20
33725;DHT22;20056;0.000;0.000;2022-12-18T19:39:21;18.10;46.30
33725;DHT22;20056;0.000;0.000;2022-12-18T19:41:47;18.20;46.30
33725;DHT22;20056;0.000;0.000;2022-12-18T19:44:15;18.20;46.40
33725;DHT22;20056;0.000;0.000;2022-12-18T19:46:42;18.20;46.90
33725;DHT22;20056;0.000;0.000;2022-12-18T19:49:12;18.30;46.30
33725;DHT22;20056;0.000;0.000;2022-12-18T19:51:41;18.30;46.30
33725;DHT22;20056;0.000;0.000;2022-12-18T19:54:07;18.30;46.30
33725;DHT22;20056;0.000;0.000;2022-12-18T19:56:33;18.30;46.30
33725;DHT22;20056;0.000;0.000;2022-12-18T19:59:00;18.30;45.90
33725;DHT22;20056;0.000;0.000;2022-12-18T20:01:28;18.30;46.20
33725;DHT22;20056;0.000;0.000;2022-12-18T20:03:54;18.40;46.20
33725;DHT22;20056;0.000;0.000;2022-12-18T20:08:54;18.40;46.10
33725;DHT22;20056;0.000;0.000;2022-12-18T20:11:20;18.40;46.10
33725;DHT22;20056;0.000;0.000;2022-12-18T20:13:45;18.40;46.10
33725;DHT22;20056;0.000;0.000;2022-12-18T20:16:11;18.40;46.30
33725;DHT22;20056;0.000;0.000;2022-12-18T20:18:37;18.40;46.20
33725;DHT22;20056;0.000;0.000;2022-12-18T20:21:03;18.40;46.00
33725;DHT22;20056;0.000;0.000;2022-12-18T20:23:28;18.40;46.10
33725;DHT22;20056;0.000;0.000;2022-12-18T20:25:54;18.40;46.10
33725;DHT22;20056;0.000;0.000;2022-12-18T20:28:21;18.40;46.00
33725;DHT22;20056;0.000;0.000;2022-12-18T20:30:47;18.40;46.20
33725;DHT22;20056;0.000;0.000;2022-12-18T20:33:13;18.40;46.20
33725;DHT22;20056;0.000;0.000;2022-12-18T20:35:38;18.40;46.20
33725;DHT22;20056;0.000;0.000;2022-12-18T20:38:04;18.40;46.20
33725;DHT22;20056;0.000;0.000;2022-12-18T20:40:29;18.40;46.30
33725;DHT22;20056;0.000;0.000;2022-12-18T20:42:55;18.40;46.20
33725;DHT22;20056;0.000;0.000;2022-12-18T20:45:20;18.40;46.30
33725;DHT22;20056;0.000;0.000;2022-12-18T20:47:46;18.50;46.40
33725;DHT22;20056;0.000;0.000;2022-12-18T20:50:11;18.50;46.30
33725;DHT22;20056;0.000;0.000;2022-12-18T20:52:37;18.40;46.40
33725;DHT22;20056;0.000;0.000;2022-12-18T20:55:04;18.50;46.50
33725;DHT22;20056;0.000;0.000;2022-12-18T20:57:30;18.50;46.40
33725;DHT22;20056;0.000;0.000;2022-12-18T20:59:56;18.50;46.40
33725;DHT22;20056;0.000;0.000;2022-12-18T21:02:21;18.50;46.30
33725;DHT22;20056;0.000;0.000;2022-12-18T21:04:47;18.50;46.20
33725;DHT22;20056;0.000;0.000;2022-12-18T21:07:13;18.50;46.30
33725;DHT22;20056;0.000;0.000;2022-12-18T21:09:38;18.60;46.30
33725;DHT22;20056;0.000;0.000;2022-12-18T21:12:07;18.50;46.20
33725;DHT22;20056;0.000;0.000;2022-12-18T21:14:53;18.50;46.30
33725;DHT22;20056;0.000;0.000;2022-12-18T21:17:19;18.60;46.40
33725;DHT22;20056;0.000;0.000;2022-12-18T21:19:44;18.60;46.90
33725;DHT22;20056;0.000;0.000;2022-12-18T21:22:10;18.60;46.60
33725;DHT22;20056;0.000;0.000;2022-12-18T21:24:36;18.60;46.30
33725;DHT22;20056;0.000;0.000;2022-12-18T21:27:02;18.50;46.20
33725;DHT22;20056;0.000;0.000;2022-12-18T21:29:28;18.50;46.00
33725;DHT22;20056;0.000;0.000;2022-12-18T21:31:54;18.40;46.50
33725;DHT22;20056;0.000;0.000;2022-12-18T21:34:27;18.40;46.50
33725;DHT22;20056;0.000;0.000;2022-12-18T21:36:55;18.30;46.80
33725;DHT22;20056;0.000;0.000;2022-12-18T21:39:21;18.20;47.10
33725;DHT22;20056;0.000;0.000;2022-12-18T21:41:47;18.20;47.30
33725;DHT22;20056;0.000;0.000;2022-12-18T21:44:31;18.10;47.40
33725;DHT22;20056;0.000;0.000;2022-12-18T21:46:57;18.10;47.50
33725;DHT22;20056;0.000;0.000;2022-12-18T21:49:23;18.00;47.30
33725;DHT22;20056;0.000;0.000;2022-12-18T21:51:56;18.00;47.20
33725;DHT22;20056;0.000;0.000;2022-12-18T21:54:24;17.90;47.30
33725;DHT22;20056;0.000;0.000;2022-12-18T21:56:58;17.90;48.00
33725;DHT22;20056;0.000;0.000;2022-12-18T21:59:37;17.90;48.20
33725;DHT22;20056;0.000;0.000;2022-12-18T22:02:06;17.80;48.50
33725;DHT22;20056;0.000;0.000;2022-12-18T22:04:32;17.80;48.50
33725;DHT22;20056;0.000;0.000;2022-12-18T22:06:59;17.80;48.60
33725;DHT22;20056;0.000;0.000;2022-12-18T22:09:25;17.70;48.70
33725;DHT22;20056;0.000;0.000;2022-12-18T22:11:52;17.70;48.80
33725;DHT22;20056;0.000;0.000;2022-12-18T22:14:18;17.70;48.90
33725;DHT22;20056;0.000;0.000;2022-12-18T22:16:44;17.70;49.10
33725;DHT22;20056;0.000;0.000;2022-12-18T22:19:10;17.70;49.40
33725;DHT22;20056;0.000;0.000;2022-12-18T22:21:39;17.70;49.80
33725;DHT22;20056;0.000;0.000;2022-12-18T22:24:12;17.60;49.80
33725;DHT22;20056;0.000;0.000;2022-12-18T22:26:38;17.60;49.90
33725;DHT22;20056;0.000;0.000;2022-12-18T22:29:04;17.60;49.50
33725;DHT22;20056;0.000;0.000;2022-12-18T22:31:48;17.60;50.00
33725;DHT22;20056;0.000;0.000;2022-12-18T22:34:14;17.60;49.90
33725;DHT22;20056;0.000;0.000;2022-12-18T22:36:42;17.60;50.40
33725;DHT22;20056;0.000;0.000;2022-12-18T22:39:14;17.50;49.70
33725;DHT22;20056;0.000;0.000;2022-12-18T22:41:40;17.50;49.70
33725;DHT22;20056;0.000;0.000;2022-12-18T22:44:06;17.50;50.30